sensor_id;sensor_type;location;lat;lon;timestamp;pressure;altitude;pressure_sealevel;temperature;humidity
13604;BME280;24578;48.264;11.436;2022-10-15T00:02:14;95691.13;;;12.10;100.00
13604;BME280;24578;48.264;11.436;2022-10-15T00:05:14;95685.41;;;12.06;100.00
13604;BME280;24578;48.264;11.436;2022-10-15T00:08:14;95695.34;;;12.01;100.00
13604;BME280;24578;48.264;11.436;2022-10-15T00:11:16;95683.13;;;11.92;100.00
13604;BME280;24578;48.264;11.436;2022-10-15T00:14:16;95686.97;;;11.87;100.00
13604;BME280;24578;48.264;11.436;2022-10-15T00:17:16;95692.97;;;11.88;100.00
13604;BME280;24578;48.264;11.436;2022-10-15T00:20:17;95686.28;;;11.85;100.00
13604;BME280;24578;48.264;11.436;2022-10-15T00:23:17;95690.25;;;11.90;100.00
13604;BME280;24578;48.264;11.436;2022-10-15T00:26:21;95684.38;;;11.87;100.00
13604;BME280;24578;48.264;11.436;2022-10-15T00:29:22;95678.22;;;11.88;100.00
13604;BME280;24578;48.264;11.436;2022-10-15T00:32:22;95666.22;;;11.87;100.00
13604;BME280;24578;48.264;11.436;2022-10-15T00:35:22;95667.03;;;11.88;100.00
13604;BME280;24578;48.264;11.436;2022-10-15T00:38:22;95671.16;;;11.91;100.00
13604;BME280;24578;48.264;11.436;2022-10-15T00:41:30;95661.44;;;11.83;100.00
13604;BME280;24578;48.264;11.436;2022-10-15T00:47:36;95653.06;;;11.79;100.00
13604;BME280;24578;48.264;11.436;2022-10-15T00:50:38;95650.88;;;11.75;100.00
13604;BME280;24578;48.264;11.436;2022-10-15T00:53:38;95649.00;;;11.77;100.00
13604;BME280;24578;48.264;11.436;2022-10-15T00:56:39;95636.84;;;11.77;100.00
13604;BME280;24578;48.264;11.436;2022-10-15T00:59:42;95636.56;;;11.80;100.00
13604;BME280;24578;48.264;11.436;2022-10-15T01:02:44;95639.44;;;11.77;100.00
13604;BME280;24578;48.264;11.436;2022-10-15T01:05:45;95638.47;;;11.78;100.00
13604;BME280;24578;48.264;11.436;2022-10-15T01:08:46;95637.78;;;11.76;100.00
13604;BME280;24578;48.264;11.436;2022-10-15T01:11:47;95643.94;;;11.75;100.00
13604;BME280;24578;48.264;11.436;2022-10-15T01:14:50;95633.56;;;11.75;100.00
13604;BME280;24578;48.264;11.436;2022-10-15T01:24:16;95619.22;;;11.71;100.00
13604;BME280;24578;48.264;11.436;2022-10-15T01:27:31;95615.94;;;11.69;100.00
13604;BME280;24578;48.264;11.436;2022-10-15T01:33:39;95609.13;;;11.68;100.00
13604;BME280;24578;48.264;11.436;2022-10-15T01:39:45;95604.88;;;11.67;100.00
13604;BME280;24578;48.264;11.436;2022-10-15T01:42:58;95606.69;;;11.66;100.00
13604;BME280;24578;48.264;11.436;2022-10-15T01:46:01;95603.94;;;11.68;100.00
13604;BME280;24578;48.264;11.436;2022-10-15T01:49:03;95597.81;;;11.69;100.00
13604;BME280;24578;48.264;11.436;2022-10-15T01:52:14;95602.03;;;11.70;100.00
13604;BME280;24578;48.264;11.436;2022-10-15T01:55:15;95600.53;;;11.67;100.00
13604;BME280;24578;48.264;11.436;2022-10-15T01:58:18;95587.69;;;11.66;100.00
13604;BME280;24578;48.264;11.436;2022-10-15T02:01:19;95576.53;;;11.65;100.00
13604;BME280;24578;48.264;11.436;2022-10-15T02:04:24;95586.06;;;11.65;100.00
13604;BME280;24578;48.264;11.436;2022-10-15T02:10:35;95582.41;;;11.67;100.00
13604;BME280;24578;48.264;11.436;2022-10-15T02:13:40;95581.28;;;11.70;100.00
13604;BME280;24578;48.264;11.436;2022-10-15T02:16:45;95574.31;;;11.70;100.00
13604;BME280;24578;48.264;11.436;2022-10-15T02:19:50;95581.41;;;11.68;100.00
13604;BME280;24578;48.264;11.436;2022-10-15T02:22:54;95576.66;;;11.73;100.00
13604;BME280;24578;48.264;11.436;2022-10-15T02:25:55;95575.44;;;11.78;100.00
13604;BME280;24578;48.264;11.436;2022-10-15T02:28:56;95573.94;;;11.75;100.00
13604;BME280;24578;48.264;11.436;2022-10-15T02:31:59;95571.47;;;11.73;100.00
13604;BME280;24578;48.264;11.436;2022-10-15T02:34:59;95559.75;;;11.79;100.00
13604;BME280;24578;48.264;11.436;2022-10-15T02:38:01;95566.81;;;11.77;100.00
13604;BME280;24578;48.264;11.436;2022-10-15T02:41:03;95558.09;;;11.78;100.00
13604;BME280;24578;48.264;11.436;2022-10-15T02:44:04;95557.03;;;11.81;100.00
13604;BME280;24578;48.264;11.436;2022-10-15T02:47:04;95558.09;;;11.78;100.00
13604;BME280;24578;48.264;11.436;2022-10-15T02:50:04;95554.28;;;11.82;100.00
13604;BME280;24578;48.264;11.436;2022-10-15T02:53:05;95549.09;;;11.82;100.00
13604;BME280;24578;48.264;11.436;2022-10-15T02:56:05;95555.13;;;11.83;100.00
13604;BME280;24578;48.264;11.436;2022-10-15T02:59:05;95551.69;;;11.82;100.00
13604;BME280;24578;48.264;11.436;2022-10-15T03:02:05;95545.56;;;11.83;100.00
13604;BME280;24578;48.264;11.436;2022-10-15T03:05:06;95545.97;;;11.88;100.00
13604;BME280;24578;48.264;11.436;2022-10-15T03:08:06;95543.09;;;11.92;100.00
13604;BME280;24578;48.264;11.436;2022-10-15T03:11:06;95545.41;;;11.95;100.00
13604;BME280;24578;48.264;11.436;2022-10-15T03:14:07;95548.47;;;12.00;100.00
13604;BME280;24578;48.264;11.436;2022-10-15T03:17:07;95552.94;;;11.98;100.00
13604;BME280;24578;48.264;11.436;2022-10-15T03:20:08;95551.84;;;12.00;100.00
13604;BME280;24578;48.264;11.436;2022-10-15T03:23:08;95547.94;;;12.06;100.00
13604;BME280;24578;48.264;11.436;2022-10-15T03:26:08;95553.13;;;12.06;100.00
13604;BME280;24578;48.264;11.436;2022-10-15T03:29:08;95552.00;;;12.09;100.00
13604;BME280;24578;48.264;11.436;2022-10-15T03:32:08;95543.13;;;12.11;100.00
13604;BME280;24578;48.264;11.436;2022-10-15T03:35:09;95543.66;;;12.15;100.00
13604;BME280;24578;48.264;11.436;2022-10-15T03:38:09;95543.97;;;12.12;100.00
13604;BME280;24578;48.264;11.436;2022-10-15T03:41:09;95544.50;;;12.15;100.00
13604;BME280;24578;48.264;11.436;2022-10-15T03:44:09;95541.75;;;12.17;100.00
13604;BME280;24578;48.264;11.436;2022-10-15T03:47:10;95538.88;;;12.20;100.00
13604;BME280;24578;48.264;11.436;2022-10-15T03:50:10;95547.50;;;12.21;100.00
13604;BME280;24578;48.264;11.436;2022-10-15T03:53:10;95542.03;;;12.24;100.00
13604;BME280;24578;48.264;11.436;2022-10-15T03:56:11;95542.84;;;12.24;100.00
13604;BME280;24578;48.264;11.436;2022-10-15T03:59:11;95544.75;;;12.32;100.00
13604;BME280;24578;48.264;11.436;2022-10-15T04:02:11;95550.06;;;12.30;100.00
13604;BME280;24578;48.264;11.436;2022-10-15T04:05:11;95548.84;;;12.34;100.00
13604;BME280;24578;48.264;11.436;2022-10-15T04:08:11;95547.63;;;12.39;100.00
13604;BME280;24578;48.264;11.436;2022-10-15T04:11:12;95547.88;;;12.45;100.00
13604;BME280;24578;48.264;11.436;2022-10-15T04:14:12;95542.25;;;12.50;100.00
13604;BME280;24578;48.264;11.436;2022-10-15T04:17:12;95546.22;;;12.54;100.00
13604;BME280;24578;48.264;11.436;2022-10-15T04:20:12;95538.97;;;12.58;100.00
13604;BME280;24578;48.264;11.436;2022-10-15T04:23:13;95542.25;;;12.60;100.00
13604;BME280;24578;48.264;11.436;2022-10-15T04:26:13;95540.31;;;12.62;100.00
13604;BME280;24578;48.264;11.436;2022-10-15T04:29:13;95533.91;;;12.66;100.00
13604;BME280;24578;48.264;11.436;2022-10-15T04:32:13;95536.50;;;12.66;100.00
13604;BME280;24578;48.264;11.436;2022-10-15T04:35:14;95541.00;;;12.74;100.00
13604;BME280;24578;48.264;11.436;2022-10-15T04:38:14;95537.28;;;12.76;100.00
13604;BME280;24578;48.264;11.436;2022-10-15T04:41:14;95537.69;;;12.82;100.00
13604;BME280;24578;48.264;11.436;2022-10-15T04:44:14;95540.38;;;12.90;100.00
13604;BME280;24578;48.264;11.436;2022-10-15T04:47:15;95536.81;;;12.91;100.00
13604;BME280;24578;48.264;11.436;2022-10-15T04:50:15;95544.19;;;12.95;100.00
13604;BME280;24578;48.264;11.436;2022-10-15T04:53:15;95537.50;;;12.93;100.00
13604;BME280;24578;48.264;11.436;2022-10-15T04:56:17;95537.75;;;13.00;100.00
13604;BME280;24578;48.264;11.436;2022-10-15T04:59:17;95540.59;;;13.06;100.00
13604;BME280;24578;48.264;11.436;2022-10-15T05:02:17;95540.44;;;13.08;100.00
13604;BME280;24578;48.264;11.436;2022-10-15T05:05:18;95538.66;;;13.08;100.00
13604;BME280;24578;48.264;11.436;2022-10-15T05:08:18;95538.66;;;13.08;100.00
13604;BME280;24578;48.264;11.436;2022-10-15T05:11:20;95542.91;;;13.09;100.00
13604;BME280;24578;48.264;11.436;2022-10-15T05:14:21;95551.91;;;13.15;100.00
13604;BME280;24578;48.264;11.436;2022-10-15T05:17:21;95528.69;;;13.14;100.00
13604;BME280;24578;48.264;11.436;2022-10-15T05:20:21;95552.97;;;13.22;100.00
13604;BME280;24578;48.264;11.436;2022-10-15T05:23:22;95551.84;;;13.25;100.00
13604;BME280;24578;48.264;11.436;2022-10-15T05:26:22;95558.81;;;13.24;100.00
13604;BME280;24578;48.264;11.436;2022-10-15T05:29:23;95548.16;;;13.28;100.00
13604;BME280;24578;48.264;11.436;2022-10-15T05:32:23;95558.41;;;13.29;100.00
13604;BME280;24578;48.264;11.436;2022-10-15T05:35:23;95562.66;;;13.30;100.00
13604;BME280;24578;48.264;11.436;2022-10-15T05:38:23;95571.25;;;13.31;100.00
13604;BME280;24578;48.264;11.436;2022-10-15T05:41:24;95561.69;;;13.31;100.00
13604;BME280;24578;48.264;11.436;2022-10-15T05:44:24;95580.84;;;13.30;100.00
13604;BME280;24578;48.264;11.436;2022-10-15T05:47:25;95573.31;;;13.27;100.00
13604;BME280;24578;48.264;11.436;2022-10-15T05:50:25;95579.22;;;13.29;100.00
13604;BME280;24578;48.264;11.436;2022-10-15T05:53:25;95582.59;;;13.30;100.00
13604;BME280;24578;48.264;11.436;2022-10-15T05:56:25;95583.44;;;13.30;100.00
13604;BME280;24578;48.264;11.436;2022-10-15T05:59:26;95585.16;;;13.39;100.00
13604;BME280;24578;48.264;11.436;2022-10-15T06:02:26;95583.66;;;13.47;100.00
13604;BME280;24578;48.264;11.436;2022-10-15T06:05:26;95592.03;;;13.40;100.00
13604;BME280;24578;48.264;11.436;2022-10-15T06:08:27;95590.91;;;13.43;100.00
13604;BME280;24578;48.264;11.436;2022-10-15T06:11:28;95610.63;;;13.46;100.00
13604;BME280;24578;48.264;11.436;2022-10-15T06:14:28;95607.06;;;13.47;100.00
13604;BME280;24578;48.264;11.436;2022-10-15T06:17:29;95615.66;;;13.47;100.00
13604;BME280;24578;48.264;11.436;2022-10-15T06:20:29;95614.28;;;13.53;100.00
13604;BME280;24578;48.264;11.436;2022-10-15T06:23:29;95613.34;;;13.44;100.00
13604;BME280;24578;48.264;11.436;2022-10-15T06:26:29;95616.63;;;13.46;100.00
13604;BME280;24578;48.264;11.436;2022-10-15T06:29:30;95634.41;;;13.51;100.00
13604;BME280;24578;48.264;11.436;2022-10-15T06:35:59;95634.63;;;13.58;100.00
13604;BME280;24578;48.264;11.436;2022-10-15T06:38:59;95641.47;;;13.59;100.00
13604;BME280;24578;48.264;11.436;2022-10-15T06:42:02;95639.84;;;13.58;100.00
13604;BME280;24578;48.264;11.436;2022-10-15T06:48:07;95666.38;;;13.61;100.00
13604;BME280;24578;48.264;11.436;2022-10-15T06:51:07;95666.63;;;13.68;100.00
13604;BME280;24578;48.264;11.436;2022-10-15T06:54:07;95666.03;;;13.74;100.00
13604;BME280;24578;48.264;11.436;2022-10-15T06:57:08;95669.31;;;13.76;100.00
13604;BME280;24578;48.264;11.436;2022-10-15T07:00:08;95673.66;;;13.85;100.00
13604;BME280;24578;48.264;11.436;2022-10-15T07:03:08;95678.03;;;13.85;100.00
13604;BME280;24578;48.264;11.436;2022-10-15T07:06:09;95684.97;;;13.94;100.00
13604;BME280;24578;48.264;11.436;2022-10-15T07:09:09;95690.56;;;13.99;100.00
13604;BME280;24578;48.264;11.436;2022-10-15T07:12:10;95678.97;;;14.12;100.00
13604;BME280;24578;48.264;11.436;2022-10-15T07:15:10;95684.41;;;14.19;100.00
13604;BME280;24578;48.264;11.436;2022-10-15T07:18:11;95684.72;;;14.34;100.00
13604;BME280;24578;48.264;11.436;2022-10-15T07:21:20;95692.19;;;14.46;100.00
13604;BME280;24578;48.264;11.436;2022-10-15T07:24:20;95701.19;;;14.52;100.00
13604;BME280;24578;48.264;11.436;2022-10-15T07:27:20;95704.97;;;14.58;100.00
13604;BME280;24578;48.264;11.436;2022-10-15T07:30:21;95705.78;;;14.58;100.00
13604;BME280;24578;48.264;11.436;2022-10-15T07:33:25;95704.47;;;14.54;100.00
13604;BME280;24578;48.264;11.436;2022-10-15T07:36:36;95708.31;;;14.50;100.00
13604;BME280;24578;48.264;11.436;2022-10-15T07:39:36;95717.84;;;14.59;100.00
13604;BME280;24578;48.264;11.436;2022-10-15T07:42:36;95728.63;;;14.65;100.00
13604;BME280;24578;48.264;11.436;2022-10-15T07:45:37;95724.22;;;14.65;100.00
13604;BME280;24578;48.264;11.436;2022-10-15T07:48:38;95729.78;;;14.80;100.00
13604;BME280;24578;48.264;11.436;2022-10-15T07:51:39;95734.31;;;14.96;100.00
13604;BME280;24578;48.264;11.436;2022-10-15T07:54:40;95742.56;;;14.91;100.00
13604;BME280;24578;48.264;11.436;2022-10-15T07:57:40;95733.78;;;14.92;100.00
13604;BME280;24578;48.264;11.436;2022-10-15T08:00:42;95733.50;;;14.96;100.00
13604;BME280;24578;48.264;11.436;2022-10-15T08:03:42;95743.34;;;15.02;100.00
13604;BME280;24578;48.264;11.436;2022-10-15T08:06:42;95742.00;;;14.98;100.00
13604;BME280;24578;48.264;11.436;2022-10-15T08:09:42;95749.94;;;15.14;100.00
13604;BME280;24578;48.264;11.436;2022-10-15T08:12:43;95746.28;;;15.25;100.00
13604;BME280;24578;48.264;11.436;2022-10-15T08:15:43;95748.41;;;15.30;100.00
13604;BME280;24578;48.264;11.436;2022-10-15T08:18:43;95753.25;;;15.25;100.00
13604;BME280;24578;48.264;11.436;2022-10-15T08:21:44;95764.66;;;15.23;100.00
13604;BME280;24578;48.264;11.436;2022-10-15T08:24:44;95766.75;;;15.20;100.00
13604;BME280;24578;48.264;11.436;2022-10-15T08:27:51;95776.72;;;15.25;100.00
13604;BME280;24578;48.264;11.436;2022-10-15T08:30:52;95782.63;;;15.27;100.00
13604;BME280;24578;48.264;11.436;2022-10-15T08:33:52;95785.72;;;15.30;100.00
13604;BME280;24578;48.264;11.436;2022-10-15T08:36:52;95792.50;;;15.41;100.00
13604;BME280;24578;48.264;11.436;2022-10-15T08:39:52;95791.31;;;15.35;100.00
13604;BME280;24578;48.264;11.436;2022-10-15T08:42:53;95798.78;;;15.57;100.00
13604;BME280;24578;48.264;11.436;2022-10-15T08:45:54;95794.63;;;15.64;100.00
13604;BME280;24578;48.264;11.436;2022-10-15T08:48:57;95808.38;;;15.74;100.00
13604;BME280;24578;48.264;11.436;2022-10-15T08:52:01;95813.69;;;15.64;100.00
13604;BME280;24578;48.264;11.436;2022-10-15T08:55:05;95818.88;;;15.38;100.00
13604;BME280;24578;48.264;11.436;2022-10-15T08:58:10;95825.66;;;15.31;100.00
13604;BME280;24578;48.264;11.436;2022-10-15T09:04:52;95832.38;;;15.15;100.00
13604;BME280;24578;48.264;11.436;2022-10-15T09:11:23;95839.22;;;15.34;100.00
13604;BME280;24578;48.264;11.436;2022-10-15T09:14:28;95827.28;;;15.50;100.00
13604;BME280;24578;48.264;11.436;2022-10-15T09:17:31;95837.78;;;15.40;100.00
13604;BME280;24578;48.264;11.436;2022-10-15T09:20:33;95832.59;;;15.22;100.00
13604;BME280;24578;48.264;11.436;2022-10-15T09:23:35;95814.13;;;15.15;100.00
13604;BME280;24578;48.264;11.436;2022-10-15T09:32:41;95824.34;;;15.09;100.00
13604;BME280;24578;48.264;11.436;2022-10-15T09:35:55;95840.63;;;15.11;100.00
13604;BME280;24578;48.264;11.436;2022-10-15T09:45:24;95844.19;;;15.64;100.00
13604;BME280;24578;48.264;11.436;2022-10-15T09:48:26;95851.06;;;15.91;100.00
13604;BME280;24578;48.264;11.436;2022-10-15T09:51:33;95849.63;;;16.23;100.00
13604;BME280;24578;48.264;11.436;2022-10-15T09:54:38;95864.56;;;16.48;100.00
13604;BME280;24578;48.264;11.436;2022-10-15T09:57:41;95845.78;;;16.87;100.00
13604;BME280;24578;48.264;11.436;2022-10-15T10:04:09;95852.88;;;17.77;100.00
13604;BME280;24578;48.264;11.436;2022-10-15T10:07:26;95844.84;;;17.95;100.00
13604;BME280;24578;48.264;11.436;2022-10-15T10:10:27;95846.00;;;18.58;100.00
13604;BME280;24578;48.264;11.436;2022-10-15T10:13:33;95843.88;;;19.16;100.00
13604;BME280;24578;48.264;11.436;2022-10-15T10:16:37;95846.47;;;19.24;100.00
13604;BME280;24578;48.264;11.436;2022-10-15T10:23:22;95837.44;;;19.27;100.00
13604;BME280;24578;48.264;11.436;2022-10-15T10:26:22;95837.22;;;19.75;100.00
13604;BME280;24578;48.264;11.436;2022-10-15T10:29:23;95838.66;;;20.46;97.79
13604;BME280;24578;48.264;11.436;2022-10-15T10:32:31;95826.41;;;21.05;96.76
13604;BME280;24578;48.264;11.436;2022-10-15T10:35:49;95830.16;;;21.39;92.67
13604;BME280;24578;48.264;11.436;2022-10-15T10:38:53;95821.59;;;22.09;90.28
13604;BME280;24578;48.264;11.436;2022-10-15T10:41:59;95827.38;;;22.32;85.76
13604;BME280;24578;48.264;11.436;2022-10-15T10:45:13;95830.06;;;22.81;81.86
13604;BME280;24578;48.264;11.436;2022-10-15T10:48:18;95821.69;;;23.33;77.61
13604;BME280;24578;48.264;11.436;2022-10-15T10:51:20;95824.84;;;23.08;76.73
13604;BME280;24578;48.264;11.436;2022-10-15T10:54:26;95826.06;;;23.12;74.04
13604;BME280;24578;48.264;11.436;2022-10-15T10:57:49;95813.50;;;23.07;75.82
13604;BME280;24578;48.264;11.436;2022-10-15T11:00:49;95827.16;;;22.69;74.78
13604;BME280;24578;48.264;11.436;2022-10-15T11:03:51;95825.81;;;22.87;74.39
13604;BME280;24578;48.264;11.436;2022-10-15T11:09:59;95827.38;;;23.30;72.95
13604;BME280;24578;48.264;11.436;2022-10-15T11:16:05;95819.84;;;23.47;72.30
13604;BME280;24578;48.264;11.436;2022-10-15T11:31:37;95827.31;;;23.16;71.70
13604;BME280;24578;48.264;11.436;2022-10-15T11:34:58;95830.59;;;23.92;69.15
13604;BME280;24578;48.264;11.436;2022-10-15T11:41:24;95839.38;;;22.84;69.12
13604;BME280;24578;48.264;11.436;2022-10-15T11:47:29;95823.31;;;23.34;67.09
13604;BME280;24578;48.264;11.436;2022-10-15T11:57:07;95826.47;;;23.02;65.47
13604;BME280;24578;48.264;11.436;2022-10-15T12:03:23;95823.34;;;22.30;68.85
13604;BME280;24578;48.264;11.436;2022-10-15T12:06:25;95819.69;;;21.96;72.49
13604;BME280;24578;48.264;11.436;2022-10-15T12:09:29;95824.13;;;21.67;73.25
13604;BME280;24578;48.264;11.436;2022-10-15T12:12:51;95828.59;;;21.23;75.13
13604;BME280;24578;48.264;11.436;2022-10-15T12:15:59;95818.56;;;21.33;75.95
13604;BME280;24578;48.264;11.436;2022-10-15T12:22:06;95815.50;;;21.08;78.48
13604;BME280;24578;48.264;11.436;2022-10-15T12:28:28;95826.94;;;20.48;77.22
13604;BME280;24578;48.264;11.436;2022-10-15T12:31:49;95824.69;;;20.15;80.09
13604;BME280;24578;48.264;11.436;2022-10-15T12:34:56;95836.38;;;20.13;81.21
13604;BME280;24578;48.264;11.436;2022-10-15T12:37:57;95820.22;;;20.76;78.04
13604;BME280;24578;48.264;11.436;2022-10-15T12:41:08;95811.63;;;20.89;76.92
13604;BME280;24578;48.264;11.436;2022-10-15T12:47:25;95812.28;;;21.56;73.15
13604;BME280;24578;48.264;11.436;2022-10-15T12:50:35;95800.28;;;21.75;73.05
13604;BME280;24578;48.264;11.436;2022-10-15T12:53:42;95802.38;;;21.80;71.35
13604;BME280;24578;48.264;11.436;2022-10-15T12:56:42;95806.59;;;21.81;70.88
13604;BME280;24578;48.264;11.436;2022-10-15T13:02:43;95822.88;;;21.19;74.71
13604;BME280;24578;48.264;11.436;2022-10-15T13:05:45;95815.88;;;21.05;75.54
13604;BME280;24578;48.264;11.436;2022-10-15T13:12:04;95820.84;;;20.78;76.60
13604;BME280;24578;48.264;11.436;2022-10-15T13:15:05;95818.91;;;20.72;78.75
13604;BME280;24578;48.264;11.436;2022-10-15T13:18:10;95820.84;;;20.48;79.67
13604;BME280;24578;48.264;11.436;2022-10-15T13:21:12;95825.88;;;20.13;80.96
13604;BME280;24578;48.264;11.436;2022-10-15T13:24:13;95827.38;;;19.92;83.62
13604;BME280;24578;48.264;11.436;2022-10-15T13:27:23;95826.13;;;19.88;84.15
13604;BME280;24578;48.264;11.436;2022-10-15T13:30:23;95826.16;;;19.80;84.47
13604;BME280;24578;48.264;11.436;2022-10-15T13:33:24;95815.97;;;19.85;84.87
13604;BME280;24578;48.264;11.436;2022-10-15T13:36:25;95818.25;;;20.33;83.60
13604;BME280;24578;48.264;11.436;2022-10-15T13:42:29;95813.72;;;20.27;82.79
13604;BME280;24578;48.264;11.436;2022-10-15T13:45:31;95814.88;;;20.09;82.08
13604;BME280;24578;48.264;11.436;2022-10-15T13:48:39;95819.72;;;20.20;82.68
13604;BME280;24578;48.264;11.436;2022-10-15T13:51:44;95805.59;;;20.21;82.54
13604;BME280;24578;48.264;11.436;2022-10-15T13:54:45;95811.09;;;20.12;83.09
13604;BME280;24578;48.264;11.436;2022-10-15T13:57:46;95817.06;;;20.05;83.62
13604;BME280;24578;48.264;11.436;2022-10-15T14:04:01;95808.38;;;19.90;84.16
13604;BME280;24578;48.264;11.436;2022-10-15T14:07:03;95808.59;;;19.80;86.76
13604;BME280;24578;48.264;11.436;2022-10-15T14:10:03;95806.41;;;19.69;85.46
13604;BME280;24578;48.264;11.436;2022-10-15T14:13:04;95808.19;;;19.53;84.76
13604;BME280;24578;48.264;11.436;2022-10-15T14:16:14;95813.94;;;19.33;84.45
13604;BME280;24578;48.264;11.436;2022-10-15T14:19:19;95799.94;;;19.18;87.00
13604;BME280;24578;48.264;11.436;2022-10-15T14:22:21;95803.09;;;19.13;86.22
13604;BME280;24578;48.264;11.436;2022-10-15T14:25:23;95802.69;;;19.01;87.19
13604;BME280;24578;48.264;11.436;2022-10-15T14:28:24;95804.97;;;19.05;87.17
13604;BME280;24578;48.264;11.436;2022-10-15T14:31:58;95805.31;;;19.01;87.55
13604;BME280;24578;48.264;11.436;2022-10-15T14:34:54;95811.06;;;18.97;89.00
13604;BME280;24578;48.264;11.436;2022-10-15T14:37:59;95815.19;;;18.99;89.38
13604;BME280;24578;48.264;11.436;2022-10-15T14:41:01;95819.25;;;19.02;89.26
13604;BME280;24578;48.264;11.436;2022-10-15T14:47:02;95818.41;;;19.01;89.00
13604;BME280;24578;48.264;11.436;2022-10-15T14:50:02;95821.69;;;19.04;89.38
13604;BME280;24578;48.264;11.436;2022-10-15T14:53:15;95810.38;;;19.03;90.21
13604;BME280;24578;48.264;11.436;2022-10-15T14:56:24;95821.88;;;18.94;89.36
13604;BME280;24578;48.264;11.436;2022-10-15T14:59:31;95809.16;;;18.82;90.38
13604;BME280;24578;48.264;11.436;2022-10-15T15:02:32;95813.94;;;18.79;91.02
13604;BME280;24578;48.264;11.436;2022-10-15T15:05:49;95819.47;;;18.61;91.68
13604;BME280;24578;48.264;11.436;2022-10-15T15:08:49;95814.97;;;18.38;92.92
13604;BME280;24578;48.264;11.436;2022-10-15T15:11:50;95818.94;;;18.25;94.19
13604;BME280;24578;48.264;11.436;2022-10-15T15:14:51;95822.09;;;18.13;95.04
13604;BME280;24578;48.264;11.436;2022-10-15T15:17:54;95828.00;;;17.90;95.08
13604;BME280;24578;48.264;11.436;2022-10-15T15:20:56;95818.69;;;17.79;96.29
13604;BME280;24578;48.264;11.436;2022-10-15T15:23:57;95818.56;;;17.72;96.85
13604;BME280;24578;48.264;11.436;2022-10-15T15:26:57;95817.22;;;17.60;98.13
13604;BME280;24578;48.264;11.436;2022-10-15T15:29:58;95816.25;;;17.44;99.00
13604;BME280;24578;48.264;11.436;2022-10-15T15:32:58;95815.78;;;17.32;99.93
13604;BME280;24578;48.264;11.436;2022-10-15T15:36:05;95817.59;;;17.24;100.00
13604;BME280;24578;48.264;11.436;2022-10-15T15:39:06;95820.19;;;17.15;100.00
13604;BME280;24578;48.264;11.436;2022-10-15T15:42:08;95824.09;;;17.03;100.00
13604;BME280;24578;48.264;11.436;2022-10-15T15:45:16;95823.78;;;17.06;100.00
13604;BME280;24578;48.264;11.436;2022-10-15T15:48:17;95830.47;;;17.09;100.00
13604;BME280;24578;48.264;11.436;2022-10-15T15:54:20;95836.84;;;17.06;100.00
13604;BME280;24578;48.264;11.436;2022-10-15T15:57:21;95836.38;;;17.02;100.00
13604;BME280;24578;48.264;11.436;2022-10-15T16:00:21;95830.16;;;17.03;100.00
13604;BME280;24578;48.264;11.436;2022-10-15T16:03:21;95827.03;;;17.00;100.00
13604;BME280;24578;48.264;11.436;2022-10-15T16:06:21;95822.16;;;16.97;100.00
13604;BME280;24578;48.264;11.436;2022-10-15T16:09:21;95832.59;;;16.97;100.00
13604;BME280;24578;48.264;11.436;2022-10-15T16:12:22;95834.97;;;16.90;100.00
13604;BME280;24578;48.264;11.436;2022-10-15T16:15:22;95838.91;;;16.86;100.00
13604;BME280;24578;48.264;11.436;2022-10-15T16:18:23;95847.38;;;16.80;100.00
13604;BME280;24578;48.264;11.436;2022-10-15T16:21:24;95852.91;;;16.77;100.00
13604;BME280;24578;48.264;11.436;2022-10-15T16:24:24;95845.72;;;16.70;100.00
13604;BME280;24578;48.264;11.436;2022-10-15T16:27:24;95858.13;;;16.68;100.00
13604;BME280;24578;48.264;11.436;2022-10-15T16:30:25;95858.75;;;16.62;100.00
13604;BME280;24578;48.264;11.436;2022-10-15T16:33:25;95865.59;;;16.55;100.00
13604;BME280;24578;48.264;11.436;2022-10-15T16:36:25;95873.09;;;16.50;100.00
13604;BME280;24578;48.264;11.436;2022-10-15T16:39:26;95866.69;;;16.44;100.00
13604;BME280;24578;48.264;11.436;2022-10-15T16:42:27;95868.13;;;16.38;100.00
13604;BME280;24578;48.264;11.436;2022-10-15T16:45:27;95867.28;;;16.29;100.00
13604;BME280;24578;48.264;11.436;2022-10-15T16:48:28;95869.03;;;16.21;100.00
13604;BME280;24578;48.264;11.436;2022-10-15T16:51:28;95873.38;;;16.12;100.00
13604;BME280;24578;48.264;11.436;2022-10-15T16:54:29;95884.28;;;16.07;100.00
13604;BME280;24578;48.264;11.436;2022-10-15T16:57:29;95885.53;;;15.95;100.00
13604;BME280;24578;48.264;11.436;2022-10-15T17:00:29;95890.94;;;15.83;100.00
13604;BME280;24578;48.264;11.436;2022-10-15T17:03:31;95887.63;;;15.73;100.00
13604;BME280;24578;48.264;11.436;2022-10-15T17:06:31;95889.50;;;15.63;100.00
13604;BME280;24578;48.264;11.436;2022-10-15T17:09:32;95893.00;;;15.53;100.00
13604;BME280;24578;48.264;11.436;2022-10-15T17:12:32;95904.34;;;15.44;100.00
13604;BME280;24578;48.264;11.436;2022-10-15T17:15:32;95912.63;;;15.40;100.00
13604;BME280;24578;48.264;11.436;2022-10-15T17:18:36;95905.22;;;15.35;100.00
13604;BME280;24578;48.264;11.436;2022-10-15T17:21:37;95908.28;;;15.30;100.00
13604;BME280;24578;48.264;11.436;2022-10-15T17:24:38;95918.19;;;15.27;100.00
13604;BME280;24578;48.264;11.436;2022-10-15T17:27:39;95922.34;;;15.19;100.00
13604;BME280;24578;48.264;11.436;2022-10-15T17:30:39;95928.69;;;15.17;100.00
13604;BME280;24578;48.264;11.436;2022-10-15T17:33:40;95933.38;;;15.13;100.00
13604;BME280;24578;48.264;11.436;2022-10-15T17:36:41;95933.81;;;15.09;100.00
13604;BME280;24578;48.264;11.436;2022-10-15T17:39:44;95928.06;;;15.05;100.00